createdAt,value
2022-08-28T00:01:48.451Z,87.40
2022-08-28T00:04:56.897Z,87.59
2022-08-28T00:07:35.260Z,87.73
2022-08-28T00:10:22.578Z,87.75
2022-08-28T00:12:58.217Z,88.56
2022-08-28T00:15:31.498Z,89.44
2022-08-28T00:18:01.867Z,89.37
2022-08-28T00:20:31.790Z,89.49
2022-08-28T00:23:00.946Z,89.40
2022-08-28T00:25:31.071Z,89.63
2022-08-28T00:28:08.811Z,89.56
2022-08-28T00:30:48.917Z,89.89
2022-08-28T00:33:23.034Z,89.68
2022-08-28T00:35:52.264Z,89.54
2022-08-28T00:38:21.726Z,89.10
2022-08-28T00:40:55.976Z,89.04
2022-08-28T00:43:42.022Z,89.50
2022-08-28T00:46:41.072Z,89.51
2022-08-28T00:49:10.049Z,90.01
2022-08-28T00:52:11.788Z,89.53
2022-08-28T00:54:59.340Z,89.86
2022-08-28T00:57:34.552Z,90.15
2022-08-28T01:00:14.594Z,91.01
2022-08-28T01:02:42.681Z,91.27
2022-08-28T01:05:13.868Z,91.63
2022-08-28T01:07:50.498Z,91.72
2022-08-28T01:10:23.035Z,91.90
2022-08-28T01:13:07.288Z,92.24
2022-08-28T01:15:42.357Z,91.97
2022-08-28T01:18:13.952Z,92.27
2022-08-28T01:21:08.520Z,92.51
2022-08-28T01:23:39.788Z,92.71
2022-08-28T01:26:10.823Z,92.38
2022-08-28T01:28:41.524Z,92.40
2022-08-28T01:31:11.698Z,91.99
2022-08-28T01:33:44.446Z,92.42
2022-08-28T01:36:19.302Z,92.50
2022-08-28T01:39:03.682Z,92.41
2022-08-28T01:41:31.991Z,92.27
2022-08-28T01:44:01.489Z,92.15
2022-08-28T01:46:32.891Z,92.50
2022-08-28T01:49:18.876Z,92.07
2022-08-28T01:51:56.130Z,92.29
2022-08-28T01:54:31.515Z,92.15
2022-08-28T01:57:02.279Z,92.10
2022-08-28T01:59:33.515Z,92.18
2022-08-28T02:02:11.100Z,92.45
2022-08-28T02:04:48.156Z,93.04
2022-08-28T02:07:17.904Z,92.63
2022-08-28T02:09:46.631Z,92.73
2022-08-28T02:12:18.094Z,92.80
2022-08-28T02:14:49.443Z,92.88
2022-08-28T02:17:35.964Z,92.81
2022-08-28T02:20:06.161Z,93.08
2022-08-28T02:22:35.770Z,93.04
2022-08-28T02:25:06.856Z,93.58
2022-08-28T02:27:39.231Z,93.55
2022-08-28T02:30:13.400Z,93.70
2022-08-28T02:32:46.019Z,94.31
2022-08-28T02:35:28.611Z,94.19
2022-08-28T02:37:57.709Z,94.37
2022-08-28T02:40:29.392Z,95.14
2022-08-28T02:43:01.832Z,94.79
2022-08-28T02:45:30.304Z,94.63
2022-08-28T02:47:58.382Z,94.73
2022-08-28T02:50:35.827Z,95.28
2022-08-28T02:53:06.950Z,95.03
2022-08-28T02:55:38.241Z,94.57
2022-08-28T02:58:08.009Z,94.44
2022-08-28T03:00:36.432Z,94.74
2022-08-28T03:03:05.473Z,94.66
2022-08-28T03:05:35.236Z,94.32
2022-08-28T03:08:03.840Z,94.32
2022-08-28T03:10:45.060Z,94.74
2022-08-28T03:13:26.437Z,94.68
2022-08-28T03:15:56.322Z,94.27
2022-08-28T03:18:27.409Z,94.04
2022-08-28T03:20:56.001Z,94.03
2022-08-28T03:23:30.674Z,93.97
2022-08-28T03:26:05.131Z,93.97
2022-08-28T03:28:46.353Z,94.11
2022-08-28T03:31:18.238Z,94.15
2022-08-28T03:33:49.159Z,94.02
2022-08-28T03:36:30.837Z,93.72
2022-08-28T03:39:08.281Z,93.78
2022-08-28T03:41:41.171Z,93.64
2022-08-28T03:44:09.615Z,93.58
2022-08-28T03:46:45.068Z,93.65
2022-08-28T03:49:15.424Z,93.50
2022-08-28T03:51:45.687Z,93.38
2022-08-28T03:54:15.567Z,93.58
2022-08-28T03:56:44.204Z,93.43
2022-08-28T03:59:16.452Z,93.57
2022-08-28T04:01:45.001Z,93.49
2022-08-28T04:04:18.551Z,93.26
2022-08-28T04:06:47.976Z,93.34
2022-08-28T04:09:22.293Z,93.56
2022-08-28T04:11:54.309Z,93.29
2022-08-28T04:14:24.552Z,93.17
2022-08-28T04:16:53.498Z,93.13
2022-08-28T04:19:23.325Z,93.06
2022-08-28T04:21:56.826Z,93.10
2022-08-28T04:24:35.049Z,92.80
2022-08-28T04:27:14.465Z,92.81
2022-08-28T04:29:49.543Z,92.87
2022-08-28T04:32:27.551Z,92.89
2022-08-28T04:34:56.145Z,93.01
2022-08-28T04:37:24.551Z,92.79
2022-08-28T04:39:59.586Z,92.70
2022-08-28T04:42:36.243Z,93.03
2022-08-28T04:45:09.231Z,92.89
2022-08-28T04:47:38.960Z,92.77
2022-08-28T04:50:08.056Z,92.88
2022-08-28T04:52:36.716Z,92.41
2022-08-28T04:55:08.553Z,92.60
2022-08-28T04:57:48.345Z,92.48
2022-08-28T05:00:17.677Z,92.37
2022-08-28T05:02:49.085Z,92.39
2022-08-28T05:05:18.055Z,92.17
2022-08-28T05:07:50.688Z,92.10
2022-08-28T05:10:19.506Z,91.94
2022-08-28T05:12:50.387Z,91.79
2022-08-28T05:15:21.741Z,91.71
2022-08-28T05:17:55.687Z,91.32
2022-08-28T05:20:27.438Z,91.39
2022-08-28T05:22:58.312Z,91.21
2022-08-28T05:25:28.807Z,91.11
2022-08-28T05:27:56.851Z,91.00
2022-08-28T05:30:28.918Z,90.76
2022-08-28T05:33:00.343Z,90.54
2022-08-28T05:35:37.254Z,90.63
2022-08-28T05:38:08.847Z,90.23
2022-08-28T05:40:48.562Z,90.13
2022-08-28T05:43:17.856Z,90.14
2022-08-28T05:45:58.135Z,89.84
2022-08-28T05:48:39.611Z,89.63
2022-08-28T05:51:14.668Z,89.49
2022-08-28T05:53:45.592Z,89.45
2022-08-28T05:56:18.093Z,89.34
2022-08-28T05:58:51.347Z,89.07
2022-08-28T06:01:26.864Z,88.86
2022-08-28T06:04:07.314Z,88.63
2022-08-28T06:06:39.548Z,88.50
2022-08-28T06:09:09.979Z,88.31
2022-08-28T06:11:46.260Z,88.04
2022-08-28T06:14:18.224Z,87.97
2022-08-28T06:16:57.648Z,87.53
2022-08-28T06:19:27.782Z,87.37
2022-08-28T06:22:06.971Z,87.12
2022-08-28T06:24:39.799Z,86.81
2022-08-28T06:27:28.009Z,86.59
2022-08-28T06:29:59.652Z,86.32
2022-08-28T06:32:27.659Z,85.85
2022-08-28T06:34:56.899Z,85.86
2022-08-28T06:37:25.926Z,85.47
2022-08-28T06:39:54.085Z,85.00
2022-08-28T06:42:22.024Z,84.72
2022-08-28T06:44:50.387Z,83.96
2022-08-28T06:47:18.997Z,83.82
2022-08-28T06:49:47.560Z,83.68
2022-08-28T06:52:15.934Z,83.71
2022-08-28T06:54:45.602Z,83.33
2022-08-28T06:57:26.176Z,83.13
2022-08-28T07:00:03.082Z,82.41
2022-08-28T07:02:33.039Z,82.60
2022-08-28T07:05:01.528Z,82.98
2022-08-28T07:07:31.444Z,82.58
2022-08-28T07:10:05.286Z,82.76
2022-08-28T07:12:34.976Z,82.70
2022-08-28T07:15:04.354Z,82.27
2022-08-28T07:17:32.834Z,82.34
2022-08-28T07:20:01.718Z,82.47
2022-08-28T07:22:32.079Z,82.19
2022-08-28T07:25:00.760Z,81.95
2022-08-28T07:27:29.059Z,81.70
2022-08-28T07:29:58.562Z,81.46
2022-08-28T07:32:27.030Z,81.05
2022-08-28T07:34:57.182Z,80.26
2022-08-28T07:37:29.758Z,80.13
2022-08-28T07:40:00.398Z,80.15
2022-08-28T07:42:48.456Z,79.88
2022-08-28T07:45:17.423Z,78.98
2022-08-28T07:47:47.454Z,79.01
2022-08-28T07:50:15.636Z,79.28
2022-08-28T07:52:47.411Z,79.34
2022-08-28T07:55:16.644Z,79.08
2022-08-28T07:57:45.090Z,78.67
2022-08-28T08:00:13.549Z,77.77
2022-08-28T08:02:43.319Z,77.73
2022-08-28T08:05:12.207Z,77.78
2022-08-28T08:07:43.754Z,77.29
2022-08-28T08:10:20.543Z,77.18
2022-08-28T08:12:48.868Z,77.32
2022-08-28T08:15:18.012Z,76.89
2022-08-28T08:17:46.386Z,77.14
2022-08-28T08:20:14.487Z,76.30
2022-08-28T08:22:43.583Z,75.99
2022-08-28T08:25:11.401Z,75.06
2022-08-28T08:27:42.913Z,73.84
2022-08-28T08:30:11.955Z,72.90
2022-08-28T08:32:41.227Z,72.82
2022-08-28T08:35:09.706Z,72.82
2022-08-28T08:37:37.748Z,71.86
2022-08-28T08:40:10.442Z,71.58
2022-08-28T08:42:38.963Z,71.52
2022-08-28T08:45:13.802Z,71.76
2022-08-28T08:47:48.809Z,71.86
2022-08-28T08:50:18.419Z,71.41
2022-08-28T08:53:08.049Z,72.34
2022-08-28T08:55:43.315Z,72.23
2022-08-28T08:58:20.307Z,71.33
2022-08-28T09:01:27.261Z,71.40
2022-08-28T09:04:15.852Z,71.86
2022-08-28T09:06:55.407Z,71.31
2022-08-28T09:09:35.359Z,69.97
2022-08-28T09:12:13.533Z,69.69
2022-08-28T09:14:50.800Z,69.65
2022-08-28T09:17:23.176Z,69.76
2022-08-28T09:19:51.087Z,69.51
2022-08-28T09:22:19.120Z,69.44
2022-08-28T09:24:47.449Z,68.13
2022-08-28T09:27:26.138Z,67.92
2022-08-28T09:30:08.611Z,67.61
2022-08-28T09:32:41.665Z,67.56
2022-08-28T09:35:24.731Z,66.76
2022-08-28T09:37:54.336Z,66.30
2022-08-28T09:40:24.733Z,65.37
2022-08-28T09:43:28.317Z,64.65
2022-08-28T09:46:21.898Z,65.12
2022-08-28T09:48:52.518Z,65.40
2022-08-28T09:51:20.510Z,65.54
2022-08-28T09:53:51.059Z,65.47
2022-08-28T09:56:45.661Z,65.77
2022-08-28T09:59:17.148Z,65.92
2022-08-28T10:02:27.832Z,65.74
2022-08-28T10:05:10.067Z,66.33
2022-08-28T10:08:06.773Z,66.03
2022-08-28T10:10:50.953Z,66.05
2022-08-28T10:13:30.730Z,66.06
2022-08-28T10:16:30.522Z,66.09
2022-08-28T10:19:17.041Z,66.65
2022-08-28T10:21:56.231Z,67.03
2022-08-28T10:25:03.185Z,67.09
2022-08-28T10:27:44.594Z,67.00
2022-08-28T10:30:20.993Z,66.36
2022-08-28T10:33:20.390Z,65.92
2022-08-28T10:36:26.513Z,66.29
2022-08-28T10:39:15.614Z,66.15
2022-08-28T10:42:00.518Z,64.61
2022-08-28T10:44:48.139Z,64.58
2022-08-28T10:47:19.947Z,65.26
2022-08-28T10:49:52.689Z,65.42
2022-08-28T10:52:40.987Z,65.20
2022-08-28T10:55:17.003Z,65.60
2022-08-28T10:58:04.038Z,66.09
2022-08-28T11:00:33.931Z,67.57
2022-08-28T11:03:27.061Z,68.69
2022-08-28T11:06:04.262Z,69.16
2022-08-28T11:08:36.809Z,70.25
2022-08-28T11:11:12.335Z,71.17
2022-08-28T11:13:54.399Z,71.65
2022-08-28T11:16:40.351Z,72.23
2022-08-28T11:19:43.485Z,72.47
2022-08-28T11:22:21.531Z,72.62
2022-08-28T11:25:03.318Z,72.93
2022-08-28T11:27:37.588Z,72.29
2022-08-28T11:30:11.813Z,71.86
2022-08-28T11:32:51.998Z,71.18
2022-08-28T11:35:29.682Z,70.59
2022-08-28T11:37:58.669Z,68.98
2022-08-28T11:40:32.221Z,68.64
2022-08-28T11:43:20.748Z,67.55
2022-08-28T11:45:48.823Z,65.72
2022-08-28T11:48:23.372Z,65.89
2022-08-28T11:51:12.196Z,65.17
2022-08-28T11:54:19.522Z,65.20
2022-08-28T11:57:13.828Z,65.44
2022-08-28T12:00:01.129Z,65.93
2022-08-28T12:02:40.636Z,66.02
2022-08-28T12:05:32.714Z,66.68
2022-08-28T12:08:03.341Z,67.48
2022-08-28T12:10:33.702Z,68.44
2022-08-28T12:13:07.600Z,68.92
2022-08-28T12:15:35.968Z,69.55
2022-08-28T12:18:06.573Z,70.14
2022-08-28T12:20:54.330Z,70.27
2022-08-28T12:23:59.057Z,70.14
2022-08-28T12:26:30.284Z,70.15
2022-08-28T12:29:09.127Z,69.97
2022-08-28T12:32:13.326Z,70.10
2022-08-28T12:34:59.893Z,70.03
2022-08-28T12:37:28.143Z,70.01
2022-08-28T12:40:03.833Z,70.13
2022-08-28T12:42:36.651Z,70.59
2022-08-28T12:45:10.182Z,70.40
2022-08-28T12:47:39.368Z,71.26
2022-08-28T12:50:29.295Z,71.11
2022-08-28T12:53:03.189Z,71.44
2022-08-28T12:55:32.870Z,71.44
2022-08-28T12:58:01.470Z,71.62
2022-08-28T13:00:36.126Z,71.49
2022-08-28T13:03:07.641Z,71.67
2022-08-28T13:05:41.595Z,71.78
2022-08-28T13:08:12.524Z,72.22
2022-08-28T13:10:51.854Z,72.77
2022-08-28T13:13:34.071Z,73.51
2022-08-28T13:16:23.611Z,74.73
2022-08-28T13:19:10.783Z,76.26
2022-08-28T13:21:47.995Z,78.22
2022-08-28T13:24:22.868Z,79.69
2022-08-28T13:27:02.856Z,80.78
2022-08-28T13:29:32.402Z,82.07
2022-08-28T13:32:15.030Z,83.27
2022-08-28T13:35:29.183Z,84.33
2022-08-28T13:38:00.382Z,85.78
2022-08-28T13:43:23.320Z,86.89
2022-08-28T13:45:52.405Z,87.57
2022-08-28T13:48:24.751Z,87.33
2022-08-28T13:51:05.196Z,88.61
2022-08-28T13:53:45.086Z,89.16
2022-08-28T13:56:13.555Z,90.24
2022-08-28T13:58:45.028Z,92.53
2022-08-28T14:01:45.581Z,95.02
2022-08-28T14:04:14.115Z,95.98
2022-08-28T14:06:45.382Z,96.95
2022-08-28T14:09:17.651Z,97.47
2022-08-28T14:11:47.654Z,98.47
2022-08-28T14:14:15.991Z,98.96
2022-08-28T14:16:46.156Z,99.48
2022-08-28T14:19:14.488Z,99.65
2022-08-28T14:21:42.407Z,99.81
2022-08-28T14:24:10.426Z,99.64
2022-08-28T14:26:39.339Z,99.91
2022-08-28T14:29:09.615Z,99.94
2022-08-28T14:31:41.255Z,100.00
2022-08-28T14:34:16.209Z,99.83
2022-08-28T14:36:45.868Z,99.14
2022-08-28T14:39:14.678Z,98.72
2022-08-28T14:41:47.356Z,98.37
2022-08-28T14:44:16.533Z,97.43
2022-08-28T14:46:47.654Z,97.01
2022-08-28T14:49:17.745Z,96.64
2022-08-28T14:51:47.210Z,96.92
2022-08-28T14:54:21.609Z,96.85
2022-08-28T14:56:50.885Z,96.79
2022-08-28T14:59:25.437Z,96.63
2022-08-28T15:01:56.260Z,96.53
2022-08-28T15:04:26.145Z,96.21
2022-08-28T15:07:00.036Z,96.10
2022-08-28T15:09:28.948Z,96.10
2022-08-28T15:11:58.062Z,95.98
2022-08-28T15:14:28.919Z,95.65
2022-08-28T15:16:57.356Z,95.65
2022-08-28T15:19:33.479Z,95.33
2022-08-28T15:22:04.271Z,95.52
2022-08-28T15:24:34.730Z,95.60
2022-08-28T15:27:03.451Z,95.49
2022-08-28T15:29:35.221Z,95.50
2022-08-28T15:32:05.493Z,95.85
2022-08-28T15:34:33.645Z,96.06
2022-08-28T15:37:08.001Z,96.12
2022-08-28T15:39:54.755Z,96.00
2022-08-28T15:42:24.522Z,96.25
2022-08-28T15:44:53.085Z,96.22
2022-08-28T15:47:23.223Z,96.13
2022-08-28T15:50:00.535Z,96.10
2022-08-28T15:52:28.579Z,96.17
2022-08-28T15:54:58.226Z,96.22
2022-08-28T15:57:27.186Z,96.44
2022-08-28T15:59:58.010Z,96.71
2022-08-28T16:02:29.845Z,96.41
2022-08-28T16:04:59.341Z,96.68
2022-08-28T16:07:27.436Z,96.79
2022-08-28T16:09:56.193Z,96.87
2022-08-28T16:12:28.763Z,96.69
2022-08-28T16:14:57.494Z,96.99
2022-08-28T16:17:26.927Z,97.07
2022-08-28T16:19:55.780Z,97.12
2022-08-28T16:22:47.843Z,97.29
2022-08-28T16:25:25.344Z,97.00
2022-08-28T16:27:54.605Z,96.92
2022-08-28T16:30:25.330Z,97.44
2022-08-28T16:32:55.444Z,97.28
2022-08-28T16:35:26.578Z,97.80
2022-08-28T16:37:55.437Z,97.75
2022-08-28T16:40:29.633Z,97.45
2022-08-28T16:43:01.022Z,98.17
2022-08-28T16:45:29.674Z,98.09
2022-08-28T16:47:59.103Z,98.42
2022-08-28T16:50:31.693Z,98.42
2022-08-28T16:53:03.643Z,98.41
2022-08-28T16:55:37.286Z,98.42
2022-08-28T16:58:05.856Z,98.53
2022-08-28T17:00:34.431Z,98.77
2022-08-28T17:03:26.192Z,98.77
2022-08-28T17:06:11.225Z,98.93
2022-08-28T17:08:39.890Z,98.83
2022-08-28T17:11:14.615Z,98.88
2022-08-28T17:13:44.572Z,98.96
2022-08-28T17:16:13.354Z,98.83
2022-08-28T17:18:48.332Z,98.89
2022-08-28T17:21:41.579Z,99.05
2022-08-28T17:24:14.959Z,99.05
2022-08-28T17:26:44.656Z,99.00
2022-08-28T17:29:18.760Z,98.97
2022-08-28T17:31:49.827Z,99.05
2022-08-28T17:34:20.570Z,99.02
2022-08-28T17:36:52.985Z,98.65
2022-08-28T17:39:21.127Z,98.55
2022-08-28T17:41:52.281Z,98.38
2022-08-28T17:44:21.652Z,98.47
2022-08-28T17:46:51.853Z,98.31
2022-08-28T17:49:20.358Z,98.29
2022-08-28T17:51:49.244Z,98.05
2022-08-28T17:54:21.546Z,98.01
2022-08-28T17:56:51.695Z,98.11
2022-08-28T17:59:24.042Z,98.04
2022-08-28T18:01:56.555Z,97.91
2022-08-28T18:04:25.054Z,97.84
2022-08-28T18:07:17.009Z,97.77
2022-08-28T18:09:45.679Z,97.98
2022-08-28T18:12:16.029Z,97.73
2022-08-28T18:14:59.253Z,97.72
2022-08-28T18:17:28.264Z,98.05
2022-08-28T18:19:57.760Z,97.67
2022-08-28T18:22:29.626Z,97.67
2022-08-28T18:25:04.040Z,97.50
2022-08-28T18:27:34.736Z,97.68
2022-08-28T18:30:04.745Z,97.57
2022-08-28T18:32:42.633Z,97.60
2022-08-28T18:35:11.776Z,97.54
2022-08-28T18:37:42.336Z,97.47
2022-08-28T18:40:13.885Z,97.38
2022-08-28T18:42:43.366Z,97.07
2022-08-28T18:45:16.777Z,97.11
2022-08-28T18:47:53.351Z,97.30
2022-08-28T18:50:32.345Z,97.16
2022-08-28T18:53:00.884Z,96.78
2022-08-28T18:55:31.092Z,96.87
2022-08-28T18:58:11.109Z,96.57
2022-08-28T19:00:46.380Z,96.28
2022-08-28T19:03:16.351Z,96.43
2022-08-28T19:05:44.537Z,96.32
2022-08-28T19:08:14.264Z,96.00
2022-08-28T19:10:44.063Z,95.98
2022-08-28T19:13:11.837Z,95.81
2022-08-28T19:15:40.467Z,95.88
2022-08-28T19:18:09.332Z,95.89
2022-08-28T19:20:38.914Z,95.89
2022-08-28T19:23:17.420Z,95.59
2022-08-28T19:25:50.264Z,95.65
2022-08-28T19:28:18.195Z,95.66
2022-08-28T19:30:47.720Z,95.51
2022-08-28T19:33:21.001Z,95.25
2022-08-28T19:35:57.514Z,95.39
2022-08-28T19:38:26.835Z,95.29
2022-08-28T19:41:02.383Z,95.45
2022-08-28T19:43:44.529Z,95.35
2022-08-28T19:46:19.294Z,95.22
2022-08-28T19:48:51.348Z,95.32
2022-08-28T19:51:27.164Z,95.25
2022-08-28T19:53:58.189Z,95.18
2022-08-28T19:56:35.754Z,95.27
2022-08-28T19:59:06.538Z,94.97
2022-08-28T20:01:38.667Z,94.67
2022-08-28T20:04:19.208Z,94.61
2022-08-28T20:06:51.743Z,94.73
2022-08-28T20:09:20.270Z,94.37
2022-08-28T20:11:50.345Z,93.95
2022-08-28T20:14:23.205Z,94.04
2022-08-28T20:16:58.985Z,93.41
2022-08-28T20:19:38.804Z,93.36
2022-08-28T20:22:09.798Z,93.18
2022-08-28T20:24:41.959Z,93.14
2022-08-28T20:27:16.334Z,92.73
2022-08-28T20:29:44.430Z,92.44
2022-08-28T20:32:13.069Z,92.35
2022-08-28T20:34:44.404Z,92.15
2022-08-28T20:37:15.125Z,91.81
2022-08-28T20:39:43.418Z,91.43
2022-08-28T20:42:14.018Z,91.23
2022-08-28T20:44:43.521Z,91.08
2022-08-28T20:47:13.003Z,90.59
2022-08-28T20:49:41.323Z,90.62
2022-08-28T20:52:22.116Z,90.06
2022-08-28T20:54:50.014Z,90.06
2022-08-28T20:57:21.768Z,90.09
2022-08-28T20:59:50.249Z,89.60
2022-08-28T21:02:26.911Z,89.65
2022-08-28T21:04:56.120Z,89.28
2022-08-28T21:07:29.628Z,89.31
2022-08-28T21:10:05.230Z,89.06
2022-08-28T21:12:41.394Z,89.17
2022-08-28T21:15:12.733Z,88.94
2022-08-28T21:17:44.710Z,88.80
2022-08-28T21:20:18.027Z,88.55
2022-08-28T21:22:48.652Z,88.74
2022-08-28T21:25:20.673Z,88.45
2022-08-28T21:27:49.069Z,88.41
2022-08-28T21:30:19.535Z,88.34
2022-08-28T21:32:49.965Z,88.23
2022-08-28T21:35:22.207Z,88.06
2022-08-28T21:37:51.456Z,88.21
2022-08-28T21:40:23.582Z,87.97
2022-08-28T21:42:58.065Z,88.15
2022-08-28T21:45:27.609Z,88.04
2022-08-28T21:47:59.435Z,87.96
2022-08-28T21:50:43.003Z,88.06
2022-08-28T21:53:11.686Z,88.00
2022-08-28T21:55:48.256Z,88.07
2022-08-28T21:58:26.983Z,88.19
2022-08-28T22:00:58.574Z,88.15
2022-08-28T22:03:36.623Z,88.15
2022-08-28T22:06:17.107Z,88.22
2022-08-28T22:09:01.539Z,88.47
2022-08-28T22:11:33.679Z,88.52
2022-08-28T22:14:15.933Z,88.81
2022-08-28T22:17:07.601Z,88.69
2022-08-28T22:19:48.996Z,88.78
2022-08-28T22:22:38.952Z,88.73
2022-08-28T22:25:08.049Z,88.94
2022-08-28T22:28:09.512Z,89.03
2022-08-28T22:30:43.379Z,89.14
2022-08-28T22:33:14.797Z,89.36
2022-08-28T22:35:48.618Z,89.52
2022-08-28T22:38:23.195Z,89.63
2022-08-28T22:41:05.598Z,90.00
2022-08-28T22:43:40.096Z,90.09
2022-08-28T22:46:19.024Z,90.15
2022-08-28T22:48:58.638Z,90.18
2022-08-28T22:51:53.158Z,90.38
2022-08-28T22:54:21.835Z,90.33
2022-08-28T22:57:02.318Z,90.62
2022-08-28T22:59:33.559Z,90.86
2022-08-28T23:02:06.033Z,90.85
2022-08-28T23:04:34.460Z,90.94
2022-08-28T23:07:06.571Z,90.95
2022-08-28T23:09:37.511Z,90.81
2022-08-28T23:12:08.036Z,91.02
2022-08-28T23:14:36.986Z,91.12
2022-08-28T23:17:09.405Z,91.06
2022-08-28T23:19:41.509Z,91.08
2022-08-28T23:22:42.036Z,91.04
2022-08-28T23:25:17.669Z,91.15
2022-08-28T23:27:46.070Z,91.44
2022-08-28T23:30:16.100Z,91.54
2022-08-28T23:32:54.651Z,91.66
2022-08-28T23:35:24.121Z,91.40
2022-08-28T23:37:56.170Z,91.74
2022-08-28T23:40:25.596Z,91.90
2022-08-28T23:43:06.120Z,92.02
2022-08-28T23:45:34.932Z,92.06
2022-08-28T23:48:14.001Z,91.88
2022-08-28T23:50:46.494Z,92.20
2022-08-28T23:53:16.585Z,92.15
2022-08-28T23:55:48.942Z,92.03
2022-08-28T23:58:22.324Z,92.22
